Time;durP1;ratioP1;P1;durP2;ratioP2;P2;SDS_P1;SDS_P2;PMS_P1;PMS_P2;Temp;Humidity;BMP_temperature;BMP_pressure;BME280_temperature;BME280_humidity;BME280_pressure;Samples;Min_cycle;Max_cycle;Signal;HPM_P1;HPM_P2
2022/01/21 00:01:12;;;;;;;1.95;1.85;;;;;;;1.56;100.00;103504.66;5020252;28;20033;-68
2022/01/21 00:03:38;;;;;;;1.60;1.50;;;;;;;1.82;100.00;103502.97;5021478;28;20177;-69
2022/01/21 00:06:07;;;;;;;1.50;1.40;;;;;;;2.16;100.00;103503.31;5021224;28;20030;-68
2022/01/21 00:08:34;;;;;;;1.40;1.30;;;;;;;2.37;100.00;103491.78;5023192;28;20057;-68
2022/01/21 00:10:59;;;;;;;1.40;1.30;;;;;;;2.43;100.00;103478.88;5021218;28;20033;-68
2022/01/21 00:13:33;;;;;;;1.13;1.13;;;;;;;2.26;100.00;103482.69;5024209;28;20029;-68
2022/01/21 00:16:10;;;;;;;1.40;1.30;;;;;;;2.09;100.00;103490.81;5004579;28;20030;-68
2022/01/21 00:18:38;;;;;;;2.08;1.92;;;;;;;1.96;100.00;103486.88;5002633;28;20026;-70
2022/01/21 00:32:02;;;;;;;1.50;1.40;;;;;;;1.20;100.00;103504.19;5018887;28;20096;-70
2022/01/21 00:34:28;;;;;;;2.03;1.92;;;;;;;1.08;100.00;103508.06;5019316;28;20484;-68
2022/01/21 00:36:53;;;;;;;1.60;1.50;;;;;;;0.95;100.00;103498.88;5018836;28;20037;-69
2022/01/21 00:39:22;;;;;;;1.70;1.60;;;;;;;0.98;100.00;103496.38;5018293;28;20030;-69
2022/01/21 00:41:59;;;;;;;1.98;1.88;;;;;;;0.79;100.00;103500.84;5018126;28;20033;-69
2022/01/21 00:44:25;;;;;;;1.50;1.40;;;;;;;0.76;100.00;103498.06;5010425;28;20159;-70
2022/01/21 00:46:50;;;;;;;1.60;1.50;;;;;;;0.57;100.00;103506.06;5018910;28;20076;-69
2022/01/21 00:49:16;;;;;;;1.67;1.58;;;;;;;0.55;100.00;103499.84;5018561;28;20762;-69
2022/01/21 00:51:42;;;;;;;1.90;1.80;;;;;;;0.59;100.00;103501.75;5018771;28;20109;-68
2022/01/21 00:54:07;;;;;;;1.50;1.40;;;;;;;0.50;100.00;103506.63;5018659;28;20033;-69
2022/01/21 00:56:33;;;;;;;2.53;2.42;;;;;;;0.48;100.00;103503.03;5019331;28;20057;-69
2022/01/21 00:58:58;;;;;;;2.15;2.05;;;;;;;0.49;100.00;103510.06;5018002;28;20026;-69
2022/01/21 01:01:24;;;;;;;1.80;1.70;;;;;;;0.56;100.00;103506.88;5019116;28;20411;-69
2022/01/21 01:03:49;;;;;;;1.60;1.50;;;;;;;0.64;100.00;103502.84;5017949;28;20018;-69
2022/01/21 01:06:14;;;;;;;1.92;1.83;;;;;;;0.71;100.00;103516.22;5019232;28;20164;-68
2022/01/21 01:08:40;;;;;;;1.70;1.60;;;;;;;0.78;100.00;103505.16;5018986;28;20033;-69
2022/01/21 01:21:48;;;;;;;1.77;1.67;;;;;;;0.74;100.00;103498.00;5018830;28;20100;-69
2022/01/21 01:29:41;;;;;;;1.70;1.60;;;;;;;0.36;100.00;103497.31;5019423;28;20064;-69
2022/01/21 01:32:07;;;;;;;2.30;2.17;;;;;;;0.28;100.00;103496.13;5017256;28;20021;-69
2022/01/21 01:34:33;;;;;;;1.70;1.60;;;;;;;0.25;100.00;103482.94;5019125;28;20030;-69
2022/01/21 01:37:03;;;;;;;1.60;1.50;;;;;;;0.18;100.00;103488.72;5019632;28;20037;-70
2022/01/21 01:42:43;;;;;;;1.70;1.60;;;;;;;0.15;100.00;103492.09;5019093;28;20117;-69
2022/01/21 01:50:39;;;;;;;1.80;1.70;;;;;;;0.08;100.00;103499.63;5000342;28;20075;-69
2022/01/21 01:53:06;;;;;;;1.90;1.80;;;;;;;0.15;100.00;103489.50;5019723;28;20021;-69
2022/01/21 01:55:34;;;;;;;1.90;1.80;;;;;;;0.19;100.00;103490.53;5000025;28;20494;-69
2022/01/21 01:57:59;;;;;;;2.10;2.00;;;;;;;0.20;100.00;103492.28;4999020;28;20085;-69
2022/01/21 02:00:28;;;;;;;2.00;1.90;;;;;;;0.28;100.00;103496.13;4997901;28;20023;-69
2022/01/21 02:02:53;;;;;;;1.80;1.70;;;;;;;0.57;100.00;103487.75;4999034;28;20034;-69
2022/01/21 02:05:19;;;;;;;1.90;1.80;;;;;;;0.74;100.00;103484.94;4997546;28;20050;-68
2022/01/21 02:07:45;;;;;;;1.92;1.83;;;;;;;0.71;100.00;103492.66;4998386;28;20042;-69
2022/01/21 02:10:11;;;;;;;1.80;1.70;;;;;;;0.66;100.00;103493.34;4997980;28;20062;-68
2022/01/21 02:12:40;;;;;;;1.90;1.80;;;;;;;0.58;100.00;103498.25;5000732;28;20409;-69
2022/01/21 02:15:05;;;;;;;1.80;1.70;;;;;;;0.69;100.00;103503.91;5003325;28;20034;-68
2022/01/21 02:22:45;;;;;;;2.10;2.00;;;;;;;0.40;100.00;103514.91;5003871;28;20068;-69
2022/01/21 02:25:15;;;;;;;;;;;;;;;0.35;100.00;103508.63;5002641;28;20082;-69
2022/01/21 02:27:41;;;;;;;2.33;2.22;;;;;;;0.36;100.00;103513.00;5002945;28;19920;-69
2022/01/21 02:30:07;;;;;;;2.08;1.98;;;;;;;0.28;100.00;103510.09;5002051;28;20158;-68
2022/01/21 02:32:33;;;;;;;2.10;2.00;;;;;;;0.16;100.00;103506.06;5002594;28;20026;-69
2022/01/21 02:34:58;;;;;;;2.00;1.90;;;;;;;0.08;100.00;103510.09;5001995;28;20034;-69
2022/01/21 02:37:23;;;;;;;2.03;1.92;;;;;;;0.02;100.00;103509.81;5002442;28;20109;-69
2022/01/21 02:39:49;;;;;;;2.00;1.90;;;;;;;-0.08;100.00;103504.19;5002880;28;20589;-69
2022/01/21 02:42:15;;;;;;;2.42;2.33;;;;;;;-0.14;100.00;103503.03;5002109;28;20027;-69
2022/01/21 02:44:42;;;;;;;2.10;2.00;;;;;;;-0.17;100.00;103506.41;5001488;28;20054;-69
2022/01/21 02:47:08;;;;;;;2.20;2.10;;;;;;;-0.22;100.00;103505.31;5000549;28;20022;-69
2022/01/21 02:49:33;;;;;;;2.00;1.90;;;;;;;-0.26;100.00;103502.50;5001172;28;20117;-69
2022/01/21 02:52:01;;;;;;;2.20;2.10;;;;;;;-0.31;100.00;103506.63;5000822;28;20486;-69
2022/01/21 02:54:31;;;;;;;2.38;2.28;;;;;;;-0.32;100.00;103497.94;5001825;28;20056;-69
2022/01/21 02:57:04;;;;;;;2.10;2.00;;;;;;;-0.29;100.00;103492.84;5002592;28;20484;-70
2022/01/21 02:59:29;;;;;;;2.75;2.65;;;;;;;-0.29;100.00;103497.16;5000492;28;20488;-69
2022/01/21 03:01:54;;;;;;;2.10;2.00;;;;;;;-0.33;100.00;103506.56;5000641;28;20128;-69
2022/01/21 03:06:57;;;;;;;2.22;2.13;;;;;;;-0.38;100.00;103496.75;5001579;28;20045;-69
2022/01/21 03:09:23;;;;;;;3.10;2.90;;;;;;;-0.34;100.00;103499.56;5000015;28;20117;-69
2022/01/21 03:11:48;;;;;;;2.20;2.10;;;;;;;-0.38;100.00;103494.16;5001504;28;20038;-69
2022/01/21 03:14:13;;;;;;;2.10;2.00;;;;;;;-0.32;100.00;103494.41;5000443;28;20497;-69
2022/01/21 03:16:39;;;;;;;2.45;2.35;;;;;;;-0.39;100.00;103501.09;5000925;28;20458;-68
2022/01/21 03:19:04;;;;;;;2.17;2.08;;;;;;;-0.42;100.00;103495.72;5001143;28;20026;-69
2022/01/21 03:21:29;;;;;;;2.20;2.10;;;;;;;-0.46;100.00;103499.00;5001268;28;20035;-68
2022/01/21 03:23:55;;;;;;;2.13;2.03;;;;;;;-0.50;100.00;103499.72;4999685;28;20023;-69
2022/01/21 03:26:26;;;;;;;2.17;2.08;;;;;;;-0.51;100.00;103495.34;5000297;28;20129;-68
2022/01/21 03:28:57;;;;;;;2.30;2.20;;;;;;;-0.45;100.00;103490.38;5000930;28;20030;-69
2022/01/21 03:31:23;;;;;;;2.22;2.13;;;;;;;-0.56;100.00;103502.06;5000991;28;20050;-69
2022/01/21 03:33:48;;;;;;;2.28;2.17;;;;;;;-0.62;100.00;103495.66;5001324;28;20462;-69
2022/01/21 03:36:14;;;;;;;2.60;2.50;;;;;;;-0.58;100.00;103494.97;5001386;28;20060;-69
2022/01/21 03:38:40;;;;;;;2.63;2.53;;;;;;;-0.56;100.00;103496.84;5001319;28;20448;-69
2022/01/21 03:41:06;;;;;;;2.60;2.50;;;;;;;-0.57;100.00;103497.66;5000709;28;20446;-70
2022/01/21 03:43:31;;;;;;;2.50;2.40;;;;;;;-0.44;100.00;103499.97;4999842;28;20027;-69
2022/01/21 03:45:57;;;;;;;2.63;2.53;;;;;;;-0.51;100.00;103505.78;5000556;28;20034;-69
2022/01/21 03:48:23;;;;;;;2.60;2.50;;;;;;;-0.45;100.00;103516.47;5000387;28;20037;-69
2022/01/21 03:50:49;;;;;;;2.80;2.70;;;;;;;-0.56;100.00;103516.81;4999546;28;20076;-68
2022/01/21 03:53:15;;;;;;;2.50;2.40;;;;;;;-0.58;100.00;103519.34;5001107;28;20027;-69
2022/01/21 03:55:41;;;;;;;2.72;2.63;;;;;;;-0.62;100.00;103522.66;5000047;28;20489;-69
2022/01/21 03:58:08;;;;;;;4.10;3.85;;;;;;;-0.62;100.00;103522.66;5000603;28;20026;-69
2022/01/21 04:00:46;;;;;;;2.70;2.60;;;;;;;-0.58;100.00;103528.91;5000490;28;20027;-69
2022/01/21 04:03:12;;;;;;;2.70;2.60;;;;;;;-0.52;100.00;103521.38;5001118;28;20096;-69
2022/01/21 04:05:38;;;;;;;2.90;2.78;;;;;;;-0.40;100.00;103538.47;4999467;28;20029;-68
2022/01/21 04:08:04;;;;;;;2.90;2.80;;;;;;;-0.39;100.00;103532.41;5000080;28;20066;-68
2022/01/21 04:10:30;;;;;;;3.45;3.25;;;;;;;-0.43;100.00;103534.81;5000918;28;20026;-69
2022/01/21 04:12:56;;;;;;;2.75;2.65;;;;;;;-0.43;100.00;103535.72;5001072;28;20045;-68
2022/01/21 04:15:22;;;;;;;2.60;2.50;;;;;;;-0.39;100.00;103528.91;5000200;28;20065;-69
2022/01/21 04:17:48;;;;;;;3.38;3.17;;;;;;;-0.45;100.00;103537.38;4998545;28;20034;-68
2022/01/21 04:20:14;;;;;;;3.38;3.17;;;;;;;-0.40;100.00;103534.97;5000601;28;20362;-68
2022/01/21 04:22:39;;;;;;;3.10;2.92;;;;;;;-0.46;100.00;103537.31;5000680;28;20474;-69
2022/01/21 04:25:06;;;;;;;3.47;3.28;;;;;;;-0.56;100.00;103522.03;5000463;28;20058;-68
2022/01/21 04:27:32;;;;;;;3.28;3.08;;;;;;;-0.59;100.00;103527.13;5000587;28;20041;-68
2022/01/21 04:29:57;;;;;;;3.40;3.20;;;;;;;-0.58;100.00;103524.56;4998811;28;20034;-68
2022/01/21 04:32:22;;;;;;;3.10;2.90;;;;;;;-0.53;100.00;103523.06;5000202;28;20534;-69
2022/01/21 04:34:48;;;;;;;3.50;3.30;;;;;;;-0.54;100.00;103531.75;4999704;28;20077;-69
2022/01/21 04:37:15;;;;;;;3.45;3.25;;;;;;;-0.57;100.00;103536.78;5000152;28;20030;-68
2022/01/21 04:39:48;;;;;;;3.35;3.15;;;;;;;-0.47;100.00;103539.00;5000301;28;20204;-69
2022/01/21 04:47:33;;;;;;;3.85;3.65;;;;;;;-0.48;100.00;103547.66;4999778;28;20113;-69
2022/01/21 04:49:58;;;;;;;3.70;3.50;;;;;;;-0.41;100.00;103549.72;4998828;28;20482;-68
2022/01/21 04:52:24;;;;;;;3.70;3.50;;;;;;;-0.39;100.00;103549.78;4999477;28;20030;-68
2022/01/21 04:54:50;;;;;;;4.53;4.22;;;;;;;-0.42;100.00;103541.81;4999655;28;20081;-69
2022/01/21 04:57:16;;;;;;;3.92;3.72;;;;;;;-0.47;100.00;103536.41;4999789;28;20030;-69
2022/01/21 04:59:42;;;;;;;3.67;3.47;;;;;;;-0.37;100.00;103542.91;4999556;28;20379;-68
2022/01/21 05:02:08;;;;;;;3.60;3.40;;;;;;;-0.20;100.00;103548.06;5001986;28;20034;-68
2022/01/21 05:04:35;;;;;;;3.50;3.30;;;;;;;-0.16;100.00;103547.38;5001252;28;20069;-69
2022/01/21 05:07:03;;;;;;;3.20;3.00;;;;;;;-0.18;100.00;103554.25;5000810;28;20377;-68
2022/01/21 05:09:31;;;;;;;3.70;3.50;;;;;;;-0.24;100.00;103548.75;5002252;28;20026;-69
2022/01/21 05:11:58;;;;;;;3.60;3.40;;;;;;;-0.33;100.00;103544.88;4999540;28;20037;-69
2022/01/21 05:14:38;;;;;;;3.17;2.97;;;;;;;-0.39;100.00;103539.34;5003456;28;20364;-70
2022/01/21 05:17:05;;;;;;;;;;;;;;;-0.38;100.00;103536.78;5002748;28;20033;-69
2022/01/21 05:19:30;;;;;;;2.90;2.80;;;;;;;-0.38;100.00;103536.78;5006792;28;19914;-71
2022/01/21 05:21:56;;;;;;;3.20;3.03;;;;;;;-0.46;100.00;103529.47;5001530;28;20043;-69
2022/01/21 05:24:21;;;;;;;2.90;2.80;;;;;;;-0.46;100.00;103532.94;5000046;28;20109;-68
2022/01/21 05:26:57;;;;;;;2.90;2.80;;;;;;;-0.48;100.00;103526.78;5000028;28;20386;-68
2022/01/21 05:29:28;;;;;;;3.22;3.03;;;;;;;-0.47;100.00;103522.44;4997665;28;20027;-68
2022/01/21 05:31:54;;;;;;;3.08;2.90;;;;;;;-0.53;100.00;103528.28;4996677;28;20038;-68
2022/01/21 05:34:19;;;;;;;3.50;3.20;;;;;;;-0.60;100.00;103526.22;4998186;28;20110;-70
2022/01/21 05:36:46;;;;;;;2.95;2.85;;;;;;;-0.60;100.00;103531.44;5001664;28;20515;-71
2022/01/21 05:39:12;;;;;;;3.03;2.83;;;;;;;-0.56;100.00;103536.00;4996135;28;20414;-69
2022/01/21 05:41:39;;;;;;;2.80;2.70;;;;;;;-0.48;100.00;103526.78;4998388;28;20057;-68
2022/01/21 05:44:19;;;;;;;2.63;2.53;;;;;;;-0.35;100.00;103528.22;4995576;28;20026;-69
2022/01/21 05:49:11;;;;;;;2.83;2.73;;;;;;;-0.32;100.00;103537.09;5013354;28;19921;-69
2022/01/21 05:51:37;;;;;;;3.00;2.85;;;;;;;-0.31;100.00;103533.66;5020001;28;20280;-68
2022/01/21 05:54:03;;;;;;;2.50;2.40;;;;;;;-0.24;100.00;103538.28;5020109;28;20026;-67
2022/01/21 05:56:30;;;;;;;3.00;2.85;;;;;;;-0.05;100.00;103535.66;5021202;28;20504;-68
2022/01/21 05:58:55;;;;;;;2.42;2.33;;;;;;;0.13;100.00;103529.47;5021897;28;20115;-70
2022/01/21 06:01:21;;;;;;;2.38;2.28;;;;;;;0.11;100.00;103542.44;5019855;28;20026;-69
2022/01/21 06:03:46;;;;;;;3.42;3.22;;;;;;;0.08;100.00;103538.81;5019170;28;20037;-68
2022/01/21 06:06:12;;;;;;;2.60;2.50;;;;;;;0.18;100.00;103536.66;5018105;28;20088;-70
2022/01/21 06:08:38;;;;;;;2.38;2.28;;;;;;;0.32;100.00;103548.56;5018770;28;20492;-71
2022/01/21 06:11:03;;;;;;;2.50;2.40;;;;;;;0.32;100.00;103558.13;5018270;28;20033;-70
2022/01/21 06:13:29;;;;;;;2.42;2.33;;;;;;;0.47;100.00;103564.00;5018903;28;20036;-71
2022/01/21 06:15:56;;;;;;;2.47;2.38;;;;;;;0.75;100.00;103564.31;5020250;28;20467;-68
2022/01/21 06:18:21;;;;;;;2.47;2.38;;;;;;;1.05;100.00;103561.19;5018653;28;20030;-69
2022/01/21 06:20:47;;;;;;;2.45;2.35;;;;;;;1.22;100.00;103573.22;5017499;28;20033;-69
2022/01/21 06:23:12;;;;;;;2.58;2.47;;;;;;;1.22;100.00;103574.94;5020269;28;20561;-68
2022/01/21 06:25:37;;;;;;;2.72;2.63;;;;;;;1.39;100.00;103576.47;5012945;28;20516;-69
2022/01/21 06:28:03;;;;;;;2.60;2.50;;;;;;;1.33;100.00;103576.22;5000340;28;20039;-68
2022/01/21 06:30:28;;;;;;;2.47;2.38;;;;;;;1.34;100.00;103572.75;5000073;28;20031;-68
2022/01/21 06:32:53;;;;;;;2.58;2.47;;;;;;;1.35;100.00;103585.94;4998142;28;20033;-71
2022/01/21 06:35:19;;;;;;;2.83;2.72;;;;;;;1.35;100.00;103588.56;5000087;28;20478;-68
2022/01/21 06:37:44;;;;;;;2.50;2.40;;;;;;;1.45;100.00;103577.59;4998972;28;20026;-68
2022/01/21 06:40:10;;;;;;;2.85;2.75;;;;;;;1.63;100.00;103587.88;4998398;28;20032;-67
2022/01/21 06:42:36;;;;;;;2.58;2.47;;;;;;;1.97;100.00;103590.00;5004447;28;20030;-68
2022/01/21 06:45:04;;;;;;;2.55;2.45;;;;;;;1.79;100.00;103584.06;5017294;28;20030;-67
2022/01/21 06:47:30;;;;;;;2.58;2.47;;;;;;;1.75;100.00;103590.94;5016655;28;20041;-68
2022/01/21 06:49:58;;;;;;;2.50;2.40;;;;;;;1.63;100.00;103586.97;5017543;28;20030;-68
2022/01/21 06:52:28;;;;;;;2.40;2.30;;;;;;;1.70;100.00;103582.03;5017630;28;20454;-69
2022/01/21 06:54:53;;;;;;;2.60;2.50;;;;;;;1.52;100.00;103581.34;5018132;28;20457;-67
2022/01/21 06:57:18;;;;;;;2.60;2.50;;;;;;;1.40;100.00;103592.22;5015947;28;20021;-67
2022/01/21 06:59:44;;;;;;;2.47;2.38;;;;;;;1.38;100.00;103598.25;5017830;28;20358;-67
2022/01/21 07:02:09;;;;;;;2.72;2.63;;;;;;;1.38;100.00;103593.00;5022491;28;20361;-66
2022/01/21 07:04:34;;;;;;;3.22;3.03;;;;;;;1.34;100.00;103592.00;5018398;28;20018;-66
2022/01/21 07:07:01;;;;;;;2.33;2.22;;;;;;;1.30;100.00;103605.81;5037665;28;20104;-67
2022/01/21 07:09:26;;;;;;;2.40;2.30;;;;;;;1.25;100.00;103593.38;5019472;28;20037;-67
2022/01/21 07:11:52;;;;;;;2.70;2.60;;;;;;;1.23;100.00;103587.19;5031256;28;20029;-69
2022/01/21 07:14:19;;;;;;;2.40;2.30;;;;;;;1.26;100.00;103582.09;5033477;28;20037;-67
2022/01/21 07:16:44;;;;;;;2.40;2.30;;;;;;;1.25;100.00;103598.59;5018435;28;20121;-67
2022/01/21 07:19:09;;;;;;;2.97;2.83;;;;;;;1.16;100.00;103588.69;5024200;28;20054;-72
2022/01/21 07:21:34;;;;;;;2.50;2.40;;;;;;;1.00;100.00;103590.63;5014102;28;20027;-67
2022/01/21 07:24:00;;;;;;;2.58;2.47;;;;;;;0.85;100.00;103601.34;4996124;28;20053;-68
2022/01/21 07:26:26;;;;;;;3.00;2.88;;;;;;;0.76;100.00;103597.47;5007757;28;20433;-68
2022/01/21 07:28:51;;;;;;;2.70;2.60;;;;;;;0.69;100.00;103605.91;5015627;28;20029;-67
2022/01/21 07:31:17;;;;;;;2.75;2.65;;;;;;;0.54;100.00;103608.78;5015101;28;20496;-68
2022/01/21 07:33:42;;;;;;;2.72;2.63;;;;;;;0.47;100.00;103617.22;5015772;28;20109;-68
2022/01/21 07:36:07;;;;;;;2.92;2.83;;;;;;;0.41;100.00;103618.66;5014078;28;20133;-68
2022/01/21 07:38:33;;;;;;;2.50;2.40;;;;;;;0.31;100.00;103611.25;5016125;28;20030;-68
2022/01/21 07:40:58;;;;;;;2.58;2.47;;;;;;;0.21;100.00;103624.72;5016414;28;20029;-67
2022/01/21 07:43:23;;;;;;;2.63;2.53;;;;;;;0.20;100.00;103609.88;5016276;28;20473;-68
2022/01/21 07:45:49;;;;;;;2.60;2.50;;;;;;;0.13;100.00;103610.47;5016641;28;20029;-68
2022/01/21 07:48:14;;;;;;;2.67;2.58;;;;;;;0.12;100.00;103611.28;5014622;28;20498;-68
2022/01/21 07:50:39;;;;;;;2.70;2.60;;;;;;;0.03;100.00;103612.66;5014609;28;20388;-68
2022/01/21 07:53:05;;;;;;;3.10;2.92;;;;;;;-0.01;100.00;103615.06;5015186;28;20061;-68
2022/01/21 07:55:30;;;;;;;2.75;2.65;;;;;;;-0.02;100.00;103614.16;5013846;28;20049;-68
2022/01/21 07:57:56;;;;;;;2.47;2.38;;;;;;;0.08;100.00;103617.19;5014815;28;20492;-68
2022/01/21 08:00:21;;;;;;;2.50;2.40;;;;;;;0.20;100.00;103615.09;5014623;28;20033;-68
2022/01/21 08:02:47;;;;;;;2.40;2.30;;;;;;;0.24;100.00;103617.06;5013640;28;20022;-68
2022/01/21 08:05:12;;;;;;;2.58;2.47;;;;;;;0.30;100.00;103609.47;5014622;28;20030;-68
2022/01/21 08:07:37;;;;;;;2.42;2.33;;;;;;;0.43;100.00;103611.75;5013159;28;20065;-69
2022/01/21 08:10:04;;;;;;;3.13;2.92;;;;;;;0.55;100.00;103614.91;5014244;28;20473;-68
2022/01/21 08:12:29;;;;;;;2.28;2.17;;;;;;;0.65;100.00;103611.81;5015055;28;20478;-68
2022/01/21 08:14:55;;;;;;;2.42;2.33;;;;;;;0.74;100.00;103618.34;5014979;28;20028;-69
2022/01/21 08:17:20;;;;;;;2.13;2.03;;;;;;;0.92;100.00;103620.81;5014892;28;20032;-69
2022/01/21 08:19:45;;;;;;;2.92;2.72;;;;;;;1.06;100.00;103622.25;5013781;28;20059;-70
2022/01/21 08:22:11;;;;;;;2.20;2.10;;;;;;;1.13;100.00;103632.16;5014693;28;20477;-68
2022/01/21 08:24:36;;;;;;;2.60;2.50;;;;;;;1.13;100.00;103632.16;5014683;28;20164;-68
2022/01/21 08:27:02;;;;;;;2.20;2.10;;;;;;;1.16;100.00;103641.03;5014714;28;20029;-68
2022/01/21 08:29:27;;;;;;;2.88;2.67;;;;;;;1.26;100.00;103639.66;5013123;28;20033;-68
2022/01/21 08:31:54;;;;;;;2.20;2.10;;;;;;;1.18;100.00;103633.25;5014476;28;20112;-69
2022/01/21 08:34:19;;;;;;;2.50;2.40;;;;;;;1.11;100.00;103628.56;5013158;28;20537;-69
2022/01/21 08:36:46;;;;;;;2.25;2.15;;;;;;;1.08;100.00;103631.97;5014689;28;20109;-69
2022/01/21 08:39:13;;;;;;;2.22;2.13;;;;;;;1.12;100.00;103614.69;5013796;28;20045;-69
2022/01/21 08:44:48;;;;;;;2.72;2.53;;;;;;;1.29;100.00;103621.47;4987132;28;20057;-69
2022/01/21 08:47:15;;;;;;;2.22;2.13;;;;;;;1.44;100.00;103607.25;5013904;28;20045;-69
2022/01/21 08:49:41;;;;;;;2.17;2.08;;;;;;;1.61;100.00;103610.47;5013164;28;20045;-69
2022/01/21 08:52:07;;;;;;;2.13;2.03;;;;;;;1.81;100.00;103612.13;5014773;28;20385;-68
2022/01/21 08:54:32;;;;;;;1.75;1.65;;;;;;;1.93;100.00;103609.97;5014490;28;20022;-69
2022/01/21 08:56:58;;;;;;;1.88;1.77;;;;;;;2.13;100.00;103595.81;5014218;28;20033;-69
2022/01/21 08:59:26;;;;;;;1.80;1.70;;;;;;;2.26;100.00;103592.81;5014480;28;20029;-69
2022/01/21 09:01:53;;;;;;;1.65;1.55;;;;;;;2.38;100.00;103593.22;5014549;28;20029;-68
2022/01/21 09:04:18;;;;;;;1.55;1.45;;;;;;;2.61;100.00;103604.50;5013763;28;20032;-69
2022/01/21 09:06:46;;;;;;;1.80;1.70;;;;;;;2.73;100.00;103607.53;5013936;28;20022;-69
2022/01/21 09:09:11;;;;;;;1.60;1.50;;;;;;;3.02;100.00;103605.03;5013671;28;20120;-69
2022/01/21 09:11:37;;;;;;;1.63;1.52;;;;;;;3.22;100.00;103608.25;5012809;28;20066;-69
2022/01/21 09:14:03;;;;;;;1.48;1.38;;;;;;;3.61;100.00;103603.34;5013166;28;20026;-69
2022/01/21 09:16:28;;;;;;;1.92;1.83;;;;;;;3.76;100.00;103593.25;5026627;28;20073;-70
2022/01/21 09:18:56;;;;;;;1.23;1.23;;;;;;;4.13;100.00;103602.22;5020650;28;20049;-70
2022/01/21 09:21:24;;;;;;;1.20;1.20;;;;;;;4.55;100.00;103608.63;5015221;28;20029;-69
2022/01/21 09:23:50;;;;;;;1.10;1.10;;;;;;;4.48;100.00;103605.78;5018625;28;20045;-69
2022/01/21 09:26:18;;;;;;;1.10;1.10;;;;;;;4.48;100.00;103600.53;5012323;28;20089;-69
2022/01/21 09:28:44;;;;;;;1.00;1.00;;;;;;;4.68;100.00;103609.81;5018887;28;20029;-68
2022/01/21 09:31:10;;;;;;;1.33;1.25;;;;;;;4.81;100.00;103597.88;5019359;28;20025;-69
2022/01/21 09:33:36;;;;;;;1.13;1.10;;;;;;;4.97;100.00;103590.38;5019216;28;20397;-70
2022/01/21 09:36:01;;;;;;;1.17;1.17;;;;;;;5.05;100.00;103590.56;5019772;28;20072;-69
2022/01/21 09:38:27;;;;;;;0.98;0.98;;;;;;;5.16;100.00;103578.53;5028875;28;20048;-74
2022/01/21 09:40:53;;;;;;;0.85;0.85;;;;;;;5.33;100.00;103571.88;5018504;28;20085;-69
2022/01/21 09:43:20;;;;;;;0.80;0.80;;;;;;;5.34;100.00;103576.31;5018226;28;20029;-69
2022/01/21 09:45:54;;;;;;;0.77;0.77;;;;;;;5.64;100.00;103562.03;5015898;28;20034;-68
2022/01/21 09:48:27;;;;;;;1.63;0.90;;;;;;;5.67;100.00;103559.44;5017069;28;20061;-69
2022/01/21 09:50:59;;;;;;;1.55;1.48;;;;;;;5.99;100.00;103566.31;5016864;28;20401;-69
2022/01/21 09:53:33;;;;;;;1.00;1.00;;;;;;;5.75;100.00;103563.13;5015783;28;20119;-69
2022/01/21 09:56:04;;;;;;;1.52;1.10;;;;;;;5.79;100.00;103554.44;5016691;28;20030;-69
2022/01/21 09:58:32;;;;;;;0.90;0.90;;;;;;;5.65;100.00;103563.81;5014919;28;20548;-70
2022/01/21 10:01:00;;;;;;;3.28;1.20;;;;;;;5.88;100.00;103561.66;5018726;28;20033;-73
2022/01/21 10:03:26;;;;;;;0.90;0.90;;;;;;;5.74;100.00;103571.91;5004871;28;20030;-73
2022/01/21 10:05:53;;;;;;;0.90;0.90;;;;;;;5.70;100.00;103574.47;5017285;28;20080;-73
2022/01/21 10:08:23;;;;;;;1.02;1.02;;;;;;;6.05;100.00;103562.91;5017039;28;20060;-73
2022/01/21 10:10:50;;;;;;;1.10;1.10;;;;;;;6.28;100.00;103571.22;5017217;28;20429;-73
2022/01/21 10:13:19;;;;;;;2.95;0.80;;;;;;;6.49;100.00;103571.63;5017104;28;20049;-73
2022/01/21 10:15:45;;;;;;;0.60;0.60;;;;;;;6.85;100.00;103578.41;5019785;28;20080;-73
2022/01/21 10:18:13;;;;;;;0.70;0.70;;;;;;;6.99;100.00;103574.22;5021090;28;20033;-70
2022/01/21 10:21:06;;;;;;;0.70;0.70;;;;;;;7.18;100.00;103583.31;5024951;28;20030;-72
2022/01/21 10:23:35;;;;;;;1.40;1.30;;;;;;;6.84;100.00;103587.19;5025521;28;20041;-70
2022/01/21 10:26:05;;;;;;;0.80;0.80;;;;;;;7.20;100.00;103589.53;5019020;28;20128;-70
2022/01/21 10:28:32;;;;;;;0.70;0.70;;;;;;;7.37;100.00;103595.94;5016195;28;20030;-69
2022/01/21 10:31:08;;;;;;;0.90;0.90;;;;;;;7.40;100.00;103595.97;5015436;28;20454;-69
2022/01/21 10:33:42;;;;;;;0.80;0.80;;;;;;;7.43;100.00;103603.94;5014475;28;20375;-70
2022/01/21 10:36:12;;;;;;;1.00;1.00;;;;;;;7.30;100.00;103596.69;5016520;28;20048;-70
2022/01/21 10:38:41;;;;;;;1.25;1.25;;;;;;;7.22;100.00;103582.47;5015761;28;20038;-69
2022/01/21 10:41:10;;;;;;;1.35;1.33;;;;;;;7.31;100.00;103572.06;5015040;28;20127;-69
2022/01/21 10:43:35;;;;;;;1.10;1.10;;;;;;;7.33;100.00;103570.31;5014846;28;20030;-68
2022/01/21 10:46:03;;;;;;;1.65;1.30;;;;;;;7.22;100.00;103574.56;5015820;28;20026;-70
2022/01/21 10:48:30;;;;;;;1.20;1.20;;;;;;;6.95;100.00;103569.75;5015999;28;20037;-70
2022/01/21 10:51:15;;;;;;;1.13;1.13;;;;;;;6.89;100.00;103577.59;5014806;28;20481;-69
2022/01/21 10:53:43;;;;;;;1.10;1.10;;;;;;;6.97;100.00;103569.78;5015967;28;20033;-69
2022/01/21 10:56:11;;;;;;;1.80;1.48;;;;;;;7.18;100.00;103573.66;5007167;28;20022;-69
2022/01/21 10:58:42;;;;;;;4.43;1.27;;;;;;;7.22;100.00;103561.34;5012530;28;20022;-70
2022/01/21 11:01:17;;;;;;;1.88;1.20;;;;;;;7.28;100.00;103562.31;5015849;28;20231;-70
2022/01/21 11:04:03;;;;;;;1.63;1.52;;;;;;;7.31;100.00;103559.72;5014308;28;20028;-72
2022/01/21 11:06:38;;;;;;;1.30;1.20;;;;;;;7.34;100.00;103567.69;5018871;28;20416;-78
2022/01/21 11:09:20;;;;;;;1.67;1.58;;;;;;;7.31;100.00;103564.13;5015871;28;20030;-70
2022/01/21 11:11:48;;;;;;;1.20;1.20;;;;;;;7.25;100.00;103572.84;5016771;28;20045;-74
2022/01/21 11:14:19;;;;;;;1.50;1.40;;;;;;;7.20;100.00;103568.38;5015004;28;20034;-72
2022/01/21 11:16:46;;;;;;;1.45;1.40;;;;;;;7.37;100.00;103566.84;5014649;28;20053;-72
2022/01/21 11:19:24;;;;;;;1.60;1.50;;;;;;;7.54;100.00;103562.69;5013877;28;20088;-70
2022/01/21 11:21:53;;;;;;;2.80;1.33;;;;;;;7.63;100.00;103574.25;5015632;28;20069;-70
2022/01/21 11:24:21;;;;;;;1.48;1.38;;;;;;;7.63;100.00;103568.06;5015132;28;20026;-69
2022/01/21 11:27:06;;;;;;;3.28;1.85;;;;;;;7.95;100.00;103564.06;5014099;28;20026;-70
2022/01/21 11:29:32;;;;;;;1.25;1.23;;;;;;;8.18;100.00;103569.63;5015227;28;20062;-70
2022/01/21 11:31:57;;;;;;;1.60;1.50;;;;;;;7.89;100.00;103569.28;5014224;28;20116;-70
2022/01/21 11:34:23;;;;;;;1.65;1.55;;;;;;;8.14;100.00;103578.38;5014770;28;20049;-70
2022/01/21 11:36:49;;;;;;;2.00;1.90;;;;;;;7.67;100.00;103567.25;5018159;28;20092;-72
2022/01/21 11:39:20;;;;;;;2.28;2.17;;;;;;;7.82;100.00;103572.72;5018683;28;20033;-73
2022/01/21 11:41:46;;;;;;;3.17;2.75;;;;;;;7.61;100.00;103569.84;5017725;28;20030;-77
2022/01/21 11:44:14;;;;;;;1.75;1.65;;;;;;;7.87;100.00;103560.44;5013855;28;20373;-77
2022/01/21 11:46:47;;;;;;;1.88;1.77;;;;;;;7.77;100.00;103563.84;5009604;28;20034;-77
2022/01/21 11:49:18;;;;;;;2.20;1.60;;;;;;;8.18;100.00;103557.25;5011601;28;20117;-71
2022/01/21 11:51:44;;;;;;;1.15;1.15;;;;;;;8.39;100.00;103552.22;4995887;28;20030;-76
2022/01/21 11:54:13;;;;;;;2.72;1.70;;;;;;;8.34;100.00;103540.69;5012430;28;20030;-71
2022/01/21 11:57:08;;;;;;;2.10;2.00;;;;;;;7.72;100.00;103531.19;5015260;28;20104;-71
2022/01/21 11:59:36;;;;;;;2.35;2.25;;;;;;;7.53;100.00;103535.34;4999097;28;20042;-71
2022/01/21 12:02:16;;;;;;;3.35;2.97;;;;;;;7.27;100.00;103531.47;5014924;28;20035;-73
2022/01/21 12:04:46;;;;;;;2.40;2.30;;;;;;;7.41;100.00;103519.31;5013828;28;20026;-71
2022/01/21 12:07:27;;;;;;;2.00;1.90;;;;;;;7.49;100.00;103537.94;5015177;28;20527;-71
2022/01/21 12:10:05;;;;;;;1.73;1.63;;;;;;;7.57;100.00;103542.47;5015243;28;20022;-71
2022/01/21 12:12:52;;;;;;;2.17;2.08;;;;;;;7.58;100.00;103545.97;5013189;28;20072;-71
2022/01/21 12:15:52;;;;;;;1.77;1.67;;;;;;;7.57;100.00;103529.22;5019117;28;20064;-72
2022/01/21 12:18:41;;;;;;;1.70;1.60;;;;;;;7.38;100.00;103523.69;5036194;28;20030;-72
2022/01/21 12:21:25;;;;;;;3.10;1.63;;;;;;;7.40;100.00;103520.22;5022287;28;20033;-71